Terminal Aerodrome Forecast
Issued by NWS Paducah, KY

Home | Current Version | Previous Version | Text Only | Print | Product List | Glossary On
Versions: 1 2 3 4 5 6 7 8 9 10 11 12 13 14 15 16 17 18 19 20 21 22
184
FTUS43 KPAH 220758 AAA
TAFPAH
TAF AMD
KPAH 220758Z 2208/2306 VRB03KT 4SM BR SCT025 OVC060
      TEMPO 2208/2210 1SM BR BKN025
     FM221000 00000KT 3/4SM BR BKN008
     FM221600 19004KT P6SM BKN020
     FM222000 19005KT P6SM SCT100=

USA.gov is the U.S. government's official web portal to all federal, state and local government web resources and services.